createdAt,value
2022-12-11T00:01:14.399Z,36.30
2022-12-11T00:03:41.990Z,35.00
2022-12-11T00:06:11.694Z,35.95
2022-12-11T00:08:40.820Z,33.88
2022-12-11T00:11:16.851Z,35.20
2022-12-11T00:13:45.927Z,33.90
2022-12-11T00:16:13.465Z,34.75
2022-12-11T00:18:46.939Z,35.15
2022-12-11T00:21:15.627Z,32.45
2022-12-11T00:23:43.464Z,34.45
2022-12-11T00:26:16.507Z,35.63
2022-12-11T00:28:45.382Z,32.60
2022-12-11T00:31:16.345Z,34.28
2022-12-11T00:33:45.999Z,33.55
2022-12-11T00:36:16.153Z,34.38
2022-12-11T00:38:49.073Z,33.97
2022-12-11T00:41:18.015Z,34.97
2022-12-11T00:43:46.625Z,32.85
2022-12-11T00:46:14.327Z,33.95
2022-12-11T00:48:41.505Z,33.65
2022-12-11T00:51:09.096Z,33.60
2022-12-11T00:53:38.070Z,32.42
2022-12-11T00:56:13.521Z,33.58
2022-12-11T00:58:48.992Z,35.55
2022-12-11T01:01:20.499Z,32.53
2022-12-11T01:03:48.099Z,33.85
2022-12-11T01:06:26.191Z,34.30
2022-12-11T01:09:14.182Z,33.63
2022-12-11T01:11:48.635Z,33.63
2022-12-11T01:14:15.995Z,34.08
2022-12-11T01:16:45.505Z,34.38
2022-12-11T01:19:13.177Z,32.85
2022-12-11T01:21:40.469Z,35.13
2022-12-11T01:24:07.916Z,31.77
2022-12-11T01:26:36.303Z,35.60
2022-12-11T01:29:03.840Z,32.30
2022-12-11T01:31:31.394Z,34.28
2022-12-11T01:33:58.794Z,32.92
2022-12-11T01:36:26.208Z,35.00
2022-12-11T01:38:54.776Z,35.88
2022-12-11T01:41:22.589Z,34.45
2022-12-11T01:44:03.928Z,33.05
2022-12-11T01:46:34.100Z,34.75
2022-12-11T01:49:04.804Z,35.63
2022-12-11T01:51:36.129Z,35.05
2022-12-11T01:54:08.146Z,33.80
2022-12-11T01:56:39.148Z,33.28
2022-12-11T01:59:09.702Z,34.92
2022-12-11T02:01:57.217Z,33.55
2022-12-11T02:04:25.036Z,35.80
2022-12-11T02:06:53.414Z,33.72
2022-12-11T02:09:42.921Z,33.63
2022-12-11T02:12:13.531Z,33.35
2022-12-11T02:15:18.692Z,33.33
2022-12-11T02:18:35.170Z,32.85
2022-12-11T02:21:21.579Z,34.63
2022-12-11T02:23:56.386Z,34.45
2022-12-11T02:26:55.649Z,32.40
2022-12-11T02:29:51.301Z,33.92
2022-12-11T02:32:38.207Z,33.92
2022-12-11T02:35:34.514Z,35.60
2022-12-11T02:38:30.405Z,34.47
2022-12-11T02:40:59.747Z,34.85
2022-12-11T02:43:31.150Z,32.53
2022-12-11T02:46:01.040Z,35.78
2022-12-11T02:48:28.668Z,33.33
2022-12-11T02:50:58.375Z,32.17
2022-12-11T02:53:29.755Z,32.90
2022-12-11T02:56:31.046Z,34.55
2022-12-11T02:59:06.269Z,34.47
2022-12-11T03:01:34.586Z,33.53
2022-12-11T03:04:01.889Z,34.60
2022-12-11T03:06:37.577Z,34.33
2022-12-11T03:09:05.911Z,32.03
2022-12-11T03:11:34.156Z,35.22
2022-12-11T03:14:05.704Z,35.47
2022-12-11T03:17:07.710Z,34.85
2022-12-11T03:19:47.944Z,34.25
2022-12-11T03:22:35.832Z,35.40
2022-12-11T03:25:08.297Z,35.90
2022-12-11T03:27:49.300Z,35.97
2022-12-11T03:30:18.840Z,34.92
2022-12-11T03:32:56.567Z,35.58
2022-12-11T03:35:35.888Z,36.95
2022-12-11T03:38:08.542Z,36.00
2022-12-11T03:40:40.320Z,38.42
2022-12-11T03:43:11.173Z,39.35
2022-12-11T03:45:40.487Z,37.95
2022-12-11T03:48:11.521Z,38.80
2022-12-11T03:50:41.108Z,39.90
2022-12-11T03:53:08.625Z,38.28
2022-12-11T03:55:39.976Z,38.13
2022-12-11T03:58:07.467Z,36.45
2022-12-11T04:00:35.378Z,38.40
2022-12-11T04:03:16.131Z,38.17
2022-12-11T04:05:48.604Z,39.20
2022-12-11T04:08:18.152Z,37.40
2022-12-11T04:10:45.196Z,36.58
2022-12-11T04:13:12.286Z,40.33
2022-12-11T04:15:40.406Z,39.08
2022-12-11T04:18:26.414Z,39.22
2022-12-11T04:21:13.078Z,37.55
2022-12-11T04:23:59.378Z,38.67
2022-12-11T04:26:26.823Z,38.28
2022-12-11T04:28:54.273Z,39.65
2022-12-11T04:31:22.917Z,39.25
2022-12-11T04:33:51.232Z,41.05
2022-12-11T04:36:18.684Z,38.65
2022-12-11T04:38:46.199Z,39.60
2022-12-11T04:41:16.235Z,42.28
2022-12-11T04:43:47.318Z,40.78
2022-12-11T04:46:21.037Z,38.00
2022-12-11T04:48:55.403Z,37.67
2022-12-11T04:51:24.813Z,39.08
2022-12-11T04:53:54.081Z,38.15
2022-12-11T04:56:23.540Z,38.40
2022-12-11T04:58:50.891Z,37.97
2022-12-11T05:01:21.536Z,38.97
2022-12-11T05:03:48.924Z,38.22
2022-12-11T05:06:16.942Z,38.25
2022-12-11T05:08:45.686Z,37.72
2022-12-11T05:11:15.021Z,37.90
2022-12-11T05:13:45.104Z,36.25
2022-12-11T05:16:16.508Z,37.08
2022-12-11T05:18:44.919Z,36.58
2022-12-11T05:21:14.742Z,36.70
2022-12-11T05:23:44.700Z,34.67
2022-12-11T05:26:19.466Z,34.75
2022-12-11T05:28:51.606Z,37.00
2022-12-11T05:31:24.452Z,38.60
2022-12-11T05:33:57.796Z,42.72
2022-12-11T05:38:58.537Z,43.75
2022-12-11T05:41:31.166Z,44.35
2022-12-11T05:43:58.692Z,47.00
2022-12-11T05:46:29.855Z,46.15
2022-12-11T05:49:01.843Z,44.88
2022-12-11T05:51:30.034Z,45.58
2022-12-11T05:53:58.658Z,46.88
2022-12-11T05:56:31.068Z,47.88
2022-12-11T05:58:59.634Z,44.13
2022-12-11T06:01:38.420Z,44.20
2022-12-11T06:04:07.074Z,43.78
2022-12-11T06:06:36.195Z,42.22
2022-12-11T06:09:05.263Z,42.88
2022-12-11T06:11:34.323Z,40.95
2022-12-11T06:14:03.387Z,41.08
2022-12-11T06:16:32.571Z,40.33
2022-12-11T06:19:00.093Z,37.95
2022-12-11T06:21:30.283Z,37.83
2022-12-11T06:23:59.588Z,36.85
2022-12-11T06:26:27.510Z,37.78
2022-12-11T06:28:54.992Z,33.95
2022-12-11T06:31:23.377Z,34.67
2022-12-11T06:33:55.491Z,35.10
2022-12-11T06:36:28.735Z,33.50
2022-12-11T06:41:24.109Z,36.53
2022-12-11T06:43:51.691Z,36.20
2022-12-11T06:46:20.679Z,35.90
2022-12-11T06:48:49.985Z,36.60
2022-12-11T06:51:22.068Z,36.90
2022-12-11T06:53:53.996Z,40.03
2022-12-11T06:56:24.437Z,42.03
2022-12-11T06:58:52.338Z,43.60
2022-12-11T07:01:25.379Z,44.28
2022-12-11T07:03:57.356Z,43.00
2022-12-11T07:06:26.443Z,41.50
2022-12-11T07:08:54.001Z,45.65
2022-12-11T07:11:22.222Z,44.83
2022-12-11T07:13:49.509Z,49.22
2022-12-11T07:16:19.150Z,42.75
2022-12-11T07:18:51.758Z,38.08
2022-12-11T07:21:21.139Z,40.40
2022-12-11T07:23:49.104Z,38.75
2022-12-11T07:26:18.916Z,36.88
2022-12-11T07:28:47.740Z,40.03
2022-12-11T07:31:21.612Z,39.42
2022-12-11T07:33:58.146Z,41.38
2022-12-11T07:36:26.194Z,39.42
2022-12-11T07:38:54.258Z,38.70
2022-12-11T07:41:31.950Z,37.47
2022-12-11T07:44:00.812Z,40.58
2022-12-11T07:46:31.964Z,38.90
2022-12-11T07:49:01.168Z,39.13
2022-12-11T07:51:31.939Z,40.55
2022-12-11T07:54:05.224Z,38.53
2022-12-11T07:59:02.879Z,40.55
2022-12-11T08:01:32.816Z,39.33
2022-12-11T08:03:59.911Z,41.22
2022-12-11T08:06:33.537Z,41.58
2022-12-11T08:09:09.167Z,42.92
2022-12-11T08:11:38.581Z,41.20
2022-12-11T08:14:08.176Z,40.25
2022-12-11T08:16:35.625Z,42.33
2022-12-11T08:19:04.308Z,40.78
2022-12-11T08:21:31.468Z,41.28
2022-12-11T08:23:59.024Z,40.83
2022-12-11T08:26:30.660Z,39.20
2022-12-11T08:29:01.377Z,40.55
2022-12-11T08:31:28.462Z,40.35
2022-12-11T08:33:57.013Z,41.22
2022-12-11T08:36:25.473Z,40.15
2022-12-11T08:38:56.112Z,38.55
2022-12-11T08:41:25.769Z,38.58
2022-12-11T08:43:55.402Z,40.22
2022-12-11T08:46:28.622Z,38.45
2022-12-11T08:48:58.210Z,38.78
2022-12-11T08:51:27.398Z,37.50
2022-12-11T08:54:00.616Z,40.83
2022-12-11T08:59:00.705Z,40.05
2022-12-11T09:01:28.930Z,40.83
2022-12-11T09:03:57.033Z,39.65
2022-12-11T09:06:28.030Z,42.53
2022-12-11T09:09:02.552Z,39.47
2022-12-11T09:11:36.432Z,40.65
2022-12-11T09:14:07.662Z,39.92
2022-12-11T09:16:39.923Z,38.38
2022-12-11T09:19:12.075Z,40.22
2022-12-11T09:21:39.713Z,39.75
2022-12-11T09:24:10.583Z,40.55
2022-12-11T09:26:38.991Z,42.80
2022-12-11T09:29:08.307Z,40.15
2022-12-11T09:31:36.932Z,40.83
2022-12-11T09:34:07.371Z,41.55
2022-12-11T09:36:39.112Z,41.85
2022-12-11T09:39:09.265Z,39.17
2022-12-11T09:41:49.954Z,39.55
2022-12-11T09:44:38.914Z,40.15
2022-12-11T09:47:32.291Z,38.38
2022-12-11T09:50:29.018Z,39.88
2022-12-11T09:53:06.937Z,37.35
2022-12-11T09:56:22.508Z,39.97
2022-12-11T09:59:28.216Z,38.20
2022-12-11T10:02:14.779Z,40.25
2022-12-11T10:05:04.565Z,45.22
2022-12-11T10:07:45.058Z,44.72
2022-12-11T10:10:40.692Z,43.53
2022-12-11T10:13:34.288Z,38.60
2022-12-11T10:16:27.528Z,35.50
2022-12-11T10:18:54.565Z,35.22
2022-12-11T10:21:23.674Z,43.67
2022-12-11T10:23:57.075Z,40.35
2022-12-11T10:26:25.324Z,38.47
2022-12-11T10:28:59.015Z,44.70
2022-12-11T10:32:07.412Z,37.33
2022-12-11T10:34:38.137Z,36.58
2022-12-11T10:37:05.173Z,32.47
2022-12-11T10:39:32.156Z,32.13
2022-12-11T10:41:59.196Z,29.48
2022-12-11T10:44:30.519Z,31.20
2022-12-11T10:47:12.507Z,32.80
2022-12-11T10:49:44.574Z,29.58
2022-12-11T10:52:20.528Z,29.63
2022-12-11T10:55:00.781Z,29.13
2022-12-11T10:57:35.123Z,27.10
2022-12-11T11:00:06.369Z,30.25
2022-12-11T11:02:37.865Z,29.25
2022-12-11T11:05:17.618Z,29.25
2022-12-11T11:07:44.814Z,29.35
2022-12-11T11:10:12.088Z,29.92
2022-12-11T11:12:44.667Z,29.52
2022-12-11T11:15:20.190Z,29.48
2022-12-11T11:17:56.385Z,30.75
2022-12-11T11:20:30.352Z,36.78
2022-12-11T11:23:01.309Z,30.67
2022-12-11T11:25:31.039Z,30.98
2022-12-11T11:28:01.589Z,32.97
2022-12-11T11:30:38.826Z,39.67
2022-12-11T11:33:18.456Z,32.53
2022-12-11T11:35:58.974Z,35.20
2022-12-11T11:38:41.326Z,32.15
2022-12-11T11:41:18.076Z,32.78
2022-12-11T11:43:53.585Z,32.38
2022-12-11T11:46:41.453Z,45.63
2022-12-11T11:49:24.253Z,26.88
2022-12-11T11:52:13.662Z,38.47
2022-12-11T11:55:02.511Z,33.50
2022-12-11T11:58:03.619Z,34.83
2022-12-11T12:00:33.985Z,33.40
2022-12-11T12:03:06.421Z,35.85
2022-12-11T12:06:18.207Z,34.60
2022-12-11T12:09:03.719Z,33.03
2022-12-11T12:11:54.867Z,31.00
2022-12-11T12:14:53.177Z,35.00
2022-12-11T12:17:38.796Z,35.88
2022-12-11T12:20:27.605Z,41.03
2022-12-11T12:23:37.667Z,38.47
2022-12-11T12:26:24.781Z,36.05
2022-12-11T12:29:24.040Z,38.47
2022-12-11T12:31:59.916Z,38.30
2022-12-11T12:34:37.228Z,35.28
2022-12-11T12:37:06.905Z,35.50
2022-12-11T12:40:01.824Z,32.88
2022-12-11T12:42:58.502Z,36.17
2022-12-11T12:45:37.535Z,29.98
2022-12-11T12:48:05.223Z,36.00
2022-12-11T12:50:53.837Z,32.42
2022-12-11T12:53:24.894Z,35.10
2022-12-11T12:55:54.081Z,35.15
2022-12-11T12:58:35.079Z,33.40
2022-12-11T13:01:24.439Z,33.03
2022-12-11T13:03:57.813Z,33.08
2022-12-11T13:06:55.092Z,32.30
2022-12-11T13:09:25.106Z,26.83
2022-12-11T13:11:57.009Z,30.73
2022-12-11T13:14:32.120Z,27.55
2022-12-11T13:17:21.472Z,26.33
2022-12-11T13:19:51.449Z,26.83
2022-12-11T13:22:25.379Z,26.58
2022-12-11T13:24:52.705Z,25.23
2022-12-11T13:27:29.829Z,24.13
2022-12-11T13:30:24.609Z,27.25
2022-12-11T13:33:08.456Z,26.63
2022-12-11T13:35:36.001Z,27.27
2022-12-11T13:38:15.974Z,26.88
2022-12-11T13:40:47.159Z,26.33
2022-12-11T13:43:20.695Z,27.48
2022-12-11T13:45:52.237Z,27.90
2022-12-11T13:48:31.640Z,28.77
2022-12-11T13:51:00.825Z,28.75
2022-12-11T13:53:28.157Z,28.40
2022-12-11T13:56:02.021Z,29.63
2022-12-11T13:58:31.385Z,27.40
2022-12-11T14:01:16.398Z,26.23
2022-12-11T14:04:01.673Z,23.63
2022-12-11T14:06:30.847Z,24.40
2022-12-11T14:09:01.378Z,25.95
2022-12-11T14:11:42.971Z,26.85
2022-12-11T14:14:20.270Z,25.52
2022-12-11T14:16:49.976Z,26.17
2022-12-11T14:19:21.908Z,27.85
2022-12-11T14:22:04.136Z,26.52
2022-12-11T14:24:32.496Z,27.55
2022-12-11T14:27:00.338Z,36.58
2022-12-11T14:29:33.169Z,37.50
2022-12-11T14:32:05.797Z,43.28
2022-12-11T14:34:44.697Z,37.35
2022-12-11T14:37:15.824Z,32.63
2022-12-11T14:39:56.952Z,32.80
2022-12-11T14:42:33.016Z,34.03
2022-12-11T14:45:25.288Z,30.25
2022-12-11T14:47:54.428Z,50.95
2022-12-11T14:50:27.525Z,29.15
2022-12-11T14:53:00.326Z,31.63
2022-12-11T14:55:39.245Z,32.60
2022-12-11T14:58:15.934Z,29.48
2022-12-11T15:00:44.154Z,32.67
2022-12-11T15:03:17.869Z,30.48
2022-12-11T15:05:55.985Z,27.33
2022-12-11T15:08:30.635Z,26.58
2022-12-11T15:11:12.939Z,25.45
2022-12-11T15:13:53.586Z,25.48
2022-12-11T15:16:23.834Z,26.92
2022-12-11T15:18:54.364Z,29.55
2022-12-11T15:21:42.852Z,29.95
2022-12-11T15:24:24.769Z,30.00
2022-12-11T15:26:52.721Z,26.70
2022-12-11T15:29:35.829Z,32.80
2022-12-11T15:32:14.465Z,29.92
2022-12-11T15:34:56.253Z,27.50
2022-12-11T15:37:27.372Z,30.15
2022-12-11T15:40:03.045Z,26.92
2022-12-11T15:42:40.403Z,24.20
2022-12-11T15:45:17.573Z,24.15
2022-12-11T15:47:46.459Z,23.52
2022-12-11T15:50:22.433Z,25.88
2022-12-11T15:52:57.994Z,22.25
2022-12-11T15:55:30.356Z,24.13
2022-12-11T15:58:03.872Z,24.17
2022-12-11T16:00:31.215Z,25.63
2022-12-11T16:02:59.540Z,25.45
2022-12-11T16:05:27.925Z,30.65
2022-12-11T16:07:59.743Z,34.60
2022-12-11T16:10:27.426Z,25.98
2022-12-11T16:12:59.824Z,26.55
2022-12-11T16:15:28.766Z,29.13
2022-12-11T16:18:08.635Z,27.80
2022-12-11T16:20:38.061Z,27.95
2022-12-11T16:23:05.668Z,26.38
2022-12-11T16:25:34.518Z,27.13
2022-12-11T16:28:02.470Z,27.02
2022-12-11T16:30:29.955Z,28.38
2022-12-11T16:32:57.614Z,29.02
2022-12-11T16:35:25.520Z,30.70
2022-12-11T16:37:55.139Z,40.15
2022-12-11T16:40:23.033Z,41.00
2022-12-11T16:42:51.431Z,35.70
2022-12-11T16:45:25.621Z,44.35
2022-12-11T16:47:53.667Z,44.47
2022-12-11T16:50:21.924Z,32.38
2022-12-11T16:52:50.594Z,32.33
2022-12-11T16:55:22.451Z,32.92
2022-12-11T16:57:50.230Z,35.20
2022-12-11T17:00:17.990Z,29.80
2022-12-11T17:02:46.485Z,28.50
2022-12-11T17:05:14.162Z,27.15
2022-12-11T17:07:43.085Z,26.08
2022-12-11T17:10:11.045Z,26.30
2022-12-11T17:12:39.975Z,26.88
2022-12-11T17:15:08.094Z,33.42
2022-12-11T17:17:35.994Z,28.35
2022-12-11T17:20:05.879Z,25.88
2022-12-11T17:22:33.968Z,26.70
2022-12-11T17:25:02.445Z,23.30
2022-12-11T17:27:30.321Z,26.33
2022-12-11T17:29:58.027Z,24.85
2022-12-11T17:32:26.666Z,24.42
2022-12-11T17:34:55.636Z,36.20
2022-12-11T17:37:24.998Z,23.63
2022-12-11T17:39:52.759Z,22.92
2022-12-11T17:42:20.354Z,28.52
2022-12-11T17:44:49.880Z,25.10
2022-12-11T17:47:17.723Z,26.25
2022-12-11T17:49:45.505Z,23.98
2022-12-11T17:52:13.906Z,26.30
2022-12-11T17:54:41.270Z,27.70
2022-12-11T17:57:08.893Z,25.80
2022-12-11T17:59:37.310Z,27.92
2022-12-11T18:02:07.670Z,27.42
2022-12-11T18:04:35.435Z,28.23
2022-12-11T18:07:03.309Z,24.60
2022-12-11T18:09:31.275Z,30.58
2022-12-11T18:11:59.158Z,27.85
2022-12-11T18:14:28.082Z,23.55
2022-12-11T18:16:55.719Z,23.00
2022-12-11T18:19:27.866Z,35.03
2022-12-11T18:21:56.316Z,27.43
2022-12-11T18:24:26.274Z,24.27
2022-12-11T18:26:56.740Z,25.73
2022-12-11T18:29:24.113Z,22.88
2022-12-11T18:31:52.321Z,22.67
2022-12-11T18:34:20.839Z,23.92
2022-12-11T18:36:48.949Z,23.52
2022-12-11T18:39:17.078Z,24.63
2022-12-11T18:41:58.399Z,22.25
2022-12-11T18:44:34.998Z,22.92
2022-12-11T18:47:02.923Z,25.80
2022-12-11T18:49:31.151Z,26.35
2022-12-11T18:52:00.286Z,22.15
2022-12-11T18:54:29.708Z,27.90
2022-12-11T18:56:58.476Z,23.48
2022-12-11T18:59:33.858Z,23.15
2022-12-11T19:02:08.237Z,25.40
2022-12-11T19:04:36.809Z,23.60
2022-12-11T19:07:06.063Z,23.00
2022-12-11T19:09:37.867Z,21.27
2022-12-11T19:12:07.876Z,25.00
2022-12-11T19:14:36.571Z,23.95
2022-12-11T19:17:04.864Z,23.60
2022-12-11T19:19:34.906Z,24.40
2022-12-11T19:22:05.144Z,22.85
2022-12-11T19:24:34.677Z,21.58
2022-12-11T19:27:11.692Z,23.77
2022-12-11T19:29:42.631Z,21.27
2022-12-11T19:32:11.172Z,21.73
2022-12-11T19:34:40.641Z,21.75
2022-12-11T19:37:10.314Z,20.85
2022-12-11T19:39:41.341Z,22.38
2022-12-11T19:42:14.558Z,19.92
2022-12-11T19:44:44.043Z,19.08
2022-12-11T19:47:13.436Z,21.58
2022-12-11T19:49:42.585Z,22.80
2022-12-11T19:52:11.638Z,22.02
2022-12-11T19:54:40.705Z,22.10
2022-12-11T19:57:08.807Z,21.02
2022-12-11T19:59:36.931Z,21.08
2022-12-11T20:02:05.775Z,21.55
2022-12-11T20:04:33.218Z,23.63
2022-12-11T20:07:02.534Z,22.85
2022-12-11T20:09:34.522Z,22.05
2022-12-11T20:12:04.190Z,23.25
2022-12-11T20:14:33.336Z,24.08
2022-12-11T20:17:11.987Z,23.08
2022-12-11T20:19:43.477Z,23.75
2022-12-11T20:22:12.438Z,25.38
2022-12-11T20:24:40.966Z,22.10
2022-12-11T20:27:10.250Z,22.80
2022-12-11T20:29:39.609Z,25.08
2022-12-11T20:32:08.191Z,24.48
2022-12-11T20:34:39.218Z,23.63
2022-12-11T20:37:09.794Z,24.13
2022-12-11T20:39:38.545Z,23.73
2022-12-11T20:42:06.934Z,26.40
2022-12-11T20:44:35.952Z,25.02
2022-12-11T20:47:04.043Z,24.27
2022-12-11T20:49:32.372Z,24.90
2022-12-11T20:52:00.092Z,25.45
2022-12-11T20:54:31.659Z,24.15
2022-12-11T20:56:59.946Z,28.83
2022-12-11T20:59:33.830Z,24.25
2022-12-11T21:02:03.628Z,25.55
2022-12-11T21:04:31.940Z,26.60
2022-12-11T21:07:01.268Z,25.52
2022-12-11T21:09:30.790Z,24.05
2022-12-11T21:12:01.348Z,23.00
2022-12-11T21:14:31.175Z,24.65
2022-12-11T21:16:59.927Z,24.23
2022-12-11T21:19:28.115Z,23.88
2022-12-11T21:21:56.684Z,24.70
2022-12-11T21:24:28.412Z,25.48
2022-12-11T21:26:58.862Z,23.85
2022-12-11T21:29:27.906Z,21.83
2022-12-11T21:31:55.686Z,25.35
2022-12-11T21:34:25.543Z,25.52
2022-12-11T21:36:57.407Z,22.65
2022-12-11T21:39:29.011Z,22.33
2022-12-11T21:41:58.572Z,21.60
2022-12-11T21:45:31.433Z,23.25
2022-12-11T21:47:13.349Z,23.52
2022-12-11T21:49:42.220Z,24.13
2022-12-11T21:52:09.787Z,24.48
2022-12-11T21:54:37.275Z,24.33
2022-12-11T21:57:05.102Z,23.42
2022-12-11T21:59:34.258Z,24.75
2022-12-11T22:02:01.775Z,23.30
2022-12-11T22:04:28.805Z,25.27
2022-12-11T22:06:56.005Z,23.15
2022-12-11T22:09:23.766Z,23.38
2022-12-11T22:11:58.152Z,22.30
2022-12-11T22:14:28.197Z,21.58
2022-12-11T22:16:55.564Z,23.45
2022-12-11T22:19:25.620Z,24.80
2022-12-11T22:21:56.614Z,22.67
2022-12-11T22:24:25.126Z,24.98
2022-12-11T22:26:52.545Z,22.73
2022-12-11T22:29:20.038Z,23.65
2022-12-11T22:31:48.537Z,23.48
2022-12-11T22:34:15.984Z,22.70
2022-12-11T22:36:43.368Z,22.23
2022-12-11T22:39:11.070Z,23.98
2022-12-11T22:41:42.301Z,22.70
2022-12-11T22:44:18.515Z,24.58
2022-12-11T22:46:50.187Z,23.38
2022-12-11T22:49:19.402Z,23.58
2022-12-11T22:51:46.595Z,23.90
2022-12-11T22:54:14.076Z,25.55
2022-12-11T22:56:41.516Z,24.85
2022-12-11T22:59:09.935Z,23.70
2022-12-11T23:01:38.498Z,25.10
2022-12-11T23:04:05.697Z,23.35
2022-12-11T23:06:32.989Z,25.58
2022-12-11T23:09:00.818Z,25.23
2022-12-11T23:11:31.892Z,24.95
2022-12-11T23:14:00.976Z,24.00
2022-12-11T23:16:28.606Z,24.80
2022-12-11T23:18:57.708Z,25.95
2022-12-11T23:21:26.659Z,24.85
2022-12-11T23:23:54.984Z,25.48
2022-12-11T23:26:23.246Z,24.52
2022-12-11T23:28:50.939Z,24.60
2022-12-11T23:31:18.427Z,24.85
2022-12-11T23:33:45.879Z,24.45
2022-12-11T23:36:14.186Z,24.02
2022-12-11T23:38:43.073Z,25.45
2022-12-11T23:41:14.085Z,23.23
2022-12-11T23:43:41.570Z,25.17
2022-12-11T23:46:13.667Z,24.45
2022-12-11T23:48:41.339Z,24.23
2022-12-11T23:51:12.644Z,24.83
2022-12-11T23:53:40.582Z,24.08
2022-12-11T23:56:22.901Z,24.90
2022-12-11T23:58:51.259Z,23.08
